sensor_id;sensor_type;location;lat;lon;timestamp;P1;durP1;ratioP1;P2;durP2;ratioP2
6117;SDS011;3089;48.202;11.510;2022-09-04T00:01:51;3.80;;;1.00;;
6117;SDS011;3089;48.202;11.510;2022-09-04T00:04:29;3.10;;;1.30;;
6117;SDS011;3089;48.202;11.510;2022-09-04T00:07:09;3.47;;;1.33;;
6117;SDS011;3089;48.202;11.510;2022-09-04T00:09:46;3.00;;;1.03;;
6117;SDS011;3089;48.202;11.510;2022-09-04T00:12:20;2.60;;;1.00;;
6117;SDS011;3089;48.202;11.510;2022-09-04T00:14:55;3.30;;;1.07;;
6117;SDS011;3089;48.202;11.510;2022-09-04T00:17:29;2.50;;;0.90;;
6117;SDS011;3089;48.202;11.510;2022-09-04T00:20:03;2.60;;;1.10;;
6117;SDS011;3089;48.202;11.510;2022-09-04T00:22:34;3.17;;;1.33;;
6117;SDS011;3089;48.202;11.510;2022-09-04T00:25:18;2.83;;;1.20;;
6117;SDS011;3089;48.202;11.510;2022-09-04T00:27:52;2.73;;;1.00;;
6117;SDS011;3089;48.202;11.510;2022-09-04T00:30:28;3.00;;;1.30;;
6117;SDS011;3089;48.202;11.510;2022-09-04T00:32:58;3.00;;;1.07;;
6117;SDS011;3089;48.202;11.510;2022-09-04T00:35:31;3.93;;;1.20;;
6117;SDS011;3089;48.202;11.510;2022-09-04T00:38:05;3.67;;;1.30;;
6117;SDS011;3089;48.202;11.510;2022-09-04T00:40:37;10.90;;;1.30;;
6117;SDS011;3089;48.202;11.510;2022-09-04T00:49:46;5.93;;;1.20;;
6117;SDS011;3089;48.202;11.510;2022-09-04T00:52:30;5.13;;;1.10;;
6117;SDS011;3089;48.202;11.510;2022-09-04T00:55:14;6.33;;;1.40;;
6117;SDS011;3089;48.202;11.510;2022-09-04T00:57:59;6.90;;;1.50;;
6117;SDS011;3089;48.202;11.510;2022-09-04T01:00:41;2.60;;;0.87;;
6117;SDS011;3089;48.202;11.510;2022-09-04T01:06:23;3.10;;;1.10;;
6117;SDS011;3089;48.202;11.510;2022-09-04T01:12:06;2.40;;;0.90;;
6117;SDS011;3089;48.202;11.510;2022-09-04T01:14:40;2.93;;;1.23;;
6117;SDS011;3089;48.202;11.510;2022-09-04T01:17:20;3.43;;;1.50;;
6117;SDS011;3089;48.202;11.510;2022-09-04T01:19:55;2.63;;;1.03;;
6117;SDS011;3089;48.202;11.510;2022-09-04T01:22:43;3.10;;;1.23;;
6117;SDS011;3089;48.202;11.510;2022-09-04T01:25:29;2.80;;;1.27;;
6117;SDS011;3089;48.202;11.510;2022-09-04T01:28:09;5.50;;;1.23;;
6117;SDS011;3089;48.202;11.510;2022-09-04T01:30:48;4.00;;;1.13;;
6117;SDS011;3089;48.202;11.510;2022-09-04T01:33:22;3.50;;;1.10;;
6117;SDS011;3089;48.202;11.510;2022-09-04T01:35:57;6.10;;;1.10;;
6117;SDS011;3089;48.202;11.510;2022-09-04T01:38:32;2.43;;;0.83;;
6117;SDS011;3089;48.202;11.510;2022-09-04T01:41:10;2.73;;;1.00;;
6117;SDS011;3089;48.202;11.510;2022-09-04T01:43:42;2.70;;;0.90;;
6117;SDS011;3089;48.202;11.510;2022-09-04T01:46:13;6.13;;;1.10;;
6117;SDS011;3089;48.202;11.510;2022-09-04T01:49:02;2.83;;;1.00;;
6117;SDS011;3089;48.202;11.510;2022-09-04T01:51:37;6.13;;;1.10;;
6117;SDS011;3089;48.202;11.510;2022-09-04T01:54:14;4.53;;;1.10;;
6117;SDS011;3089;48.202;11.510;2022-09-04T01:56:56;6.07;;;1.10;;
6117;SDS011;3089;48.202;11.510;2022-09-04T01:59:36;4.80;;;1.53;;
6117;SDS011;3089;48.202;11.510;2022-09-04T02:02:19;3.30;;;0.97;;
6117;SDS011;3089;48.202;11.510;2022-09-04T02:04:53;3.80;;;1.30;;
6117;SDS011;3089;48.202;11.510;2022-09-04T02:07:34;4.37;;;1.13;;
6117;SDS011;3089;48.202;11.510;2022-09-04T02:10:12;3.17;;;1.00;;
6117;SDS011;3089;48.202;11.510;2022-09-04T02:12:52;2.47;;;0.97;;
6117;SDS011;3089;48.202;11.510;2022-09-04T02:15:31;3.03;;;1.20;;
6117;SDS011;3089;48.202;11.510;2022-09-04T02:18:07;2.63;;;1.00;;
6117;SDS011;3089;48.202;11.510;2022-09-04T02:20:46;3.90;;;1.03;;
6117;SDS011;3089;48.202;11.510;2022-09-04T02:23:23;5.67;;;3.43;;
6117;SDS011;3089;48.202;11.510;2022-09-04T02:26:02;2.70;;;1.00;;
6117;SDS011;3089;48.202;11.510;2022-09-04T02:28:42;2.87;;;1.10;;
6117;SDS011;3089;48.202;11.510;2022-09-04T02:31:17;2.50;;;0.93;;
6117;SDS011;3089;48.202;11.510;2022-09-04T02:33:56;2.43;;;0.90;;
6117;SDS011;3089;48.202;11.510;2022-09-04T02:36:33;2.70;;;1.00;;
6117;SDS011;3089;48.202;11.510;2022-09-04T02:39:09;4.30;;;1.07;;
6117;SDS011;3089;48.202;11.510;2022-09-04T02:41:49;7.00;;;1.17;;
6117;SDS011;3089;48.202;11.510;2022-09-04T02:44:27;3.20;;;1.33;;
6117;SDS011;3089;48.202;11.510;2022-09-04T02:47:03;2.90;;;1.33;;
6117;SDS011;3089;48.202;11.510;2022-09-04T02:49:43;9.63;;;1.20;;
6117;SDS011;3089;48.202;11.510;2022-09-04T02:52:20;2.77;;;1.33;;
6117;SDS011;3089;48.202;11.510;2022-09-04T02:55:07;3.00;;;1.10;;
6117;SDS011;3089;48.202;11.510;2022-09-04T02:57:48;2.53;;;0.97;;
6117;SDS011;3089;48.202;11.510;2022-09-04T03:00:27;2.53;;;1.10;;
6117;SDS011;3089;48.202;11.510;2022-09-04T03:03:06;2.77;;;0.97;;
6117;SDS011;3089;48.202;11.510;2022-09-04T03:05:40;3.00;;;1.17;;
6117;SDS011;3089;48.202;11.510;2022-09-04T03:08:12;3.10;;;1.30;;
6117;SDS011;3089;48.202;11.510;2022-09-04T03:10:46;2.80;;;1.20;;
6117;SDS011;3089;48.202;11.510;2022-09-04T03:13:19;3.80;;;1.40;;
6117;SDS011;3089;48.202;11.510;2022-09-04T03:15:54;2.87;;;1.00;;
6117;SDS011;3089;48.202;11.510;2022-09-04T03:18:29;3.50;;;1.27;;
6117;SDS011;3089;48.202;11.510;2022-09-04T03:21:02;3.23;;;1.40;;
6117;SDS011;3089;48.202;11.510;2022-09-04T03:23:37;3.80;;;1.23;;
6117;SDS011;3089;48.202;11.510;2022-09-04T03:26:15;2.50;;;0.90;;
6117;SDS011;3089;48.202;11.510;2022-09-04T03:28:50;3.40;;;1.30;;
6117;SDS011;3089;48.202;11.510;2022-09-04T03:31:32;2.30;;;0.90;;
6117;SDS011;3089;48.202;11.510;2022-09-04T03:34:10;2.80;;;1.10;;
6117;SDS011;3089;48.202;11.510;2022-09-04T03:36:47;2.90;;;1.23;;
6117;SDS011;3089;48.202;11.510;2022-09-04T03:39:25;2.87;;;1.23;;
6117;SDS011;3089;48.202;11.510;2022-09-04T03:42:11;2.60;;;1.03;;
6117;SDS011;3089;48.202;11.510;2022-09-04T03:44:49;2.80;;;1.10;;
6117;SDS011;3089;48.202;11.510;2022-09-04T03:47:32;3.43;;;1.53;;
6117;SDS011;3089;48.202;11.510;2022-09-04T03:50:10;4.50;;;1.30;;
6117;SDS011;3089;48.202;11.510;2022-09-04T03:52:47;2.77;;;1.10;;
6117;SDS011;3089;48.202;11.510;2022-09-04T03:55:31;2.50;;;1.13;;
6117;SDS011;3089;48.202;11.510;2022-09-04T03:58:13;3.70;;;1.53;;
6117;SDS011;3089;48.202;11.510;2022-09-04T04:00:52;3.43;;;1.27;;
6117;SDS011;3089;48.202;11.510;2022-09-04T04:03:35;3.43;;;1.33;;
6117;SDS011;3089;48.202;11.510;2022-09-04T04:06:15;3.50;;;1.63;;
6117;SDS011;3089;48.202;11.510;2022-09-04T04:12:01;7.73;;;1.17;;
6117;SDS011;3089;48.202;11.510;2022-09-04T04:15:12;4.07;;;1.40;;
6117;SDS011;3089;48.202;11.510;2022-09-04T04:17:58;3.53;;;1.57;;
6117;SDS011;3089;48.202;11.510;2022-09-04T04:20:42;3.00;;;1.33;;
6117;SDS011;3089;48.202;11.510;2022-09-04T04:23:21;8.67;;;1.77;;
6117;SDS011;3089;48.202;11.510;2022-09-04T04:26:08;3.40;;;1.60;;
6117;SDS011;3089;48.202;11.510;2022-09-04T04:28:53;3.77;;;1.70;;
6117;SDS011;3089;48.202;11.510;2022-09-04T04:31:42;3.50;;;1.33;;
6117;SDS011;3089;48.202;11.510;2022-09-04T04:34:38;4.10;;;1.47;;
6117;SDS011;3089;48.202;11.510;2022-09-04T04:37:18;5.53;;;1.50;;
6117;SDS011;3089;48.202;11.510;2022-09-04T04:39:55;3.23;;;1.50;;
6117;SDS011;3089;48.202;11.510;2022-09-04T04:42:30;3.00;;;1.30;;
6117;SDS011;3089;48.202;11.510;2022-09-04T04:45:10;3.00;;;1.13;;
6117;SDS011;3089;48.202;11.510;2022-09-04T04:51:01;3.10;;;1.10;;
6117;SDS011;3089;48.202;11.510;2022-09-04T04:53:41;3.27;;;1.33;;
6117;SDS011;3089;48.202;11.510;2022-09-04T04:56:19;8.20;;;1.00;;
6117;SDS011;3089;48.202;11.510;2022-09-04T04:58:57;2.50;;;1.00;;
6117;SDS011;3089;48.202;11.510;2022-09-04T05:01:37;3.23;;;1.23;;
6117;SDS011;3089;48.202;11.510;2022-09-04T05:04:12;4.00;;;1.47;;
6117;SDS011;3089;48.202;11.510;2022-09-04T05:06:50;2.50;;;1.00;;
6117;SDS011;3089;48.202;11.510;2022-09-04T05:09:31;2.60;;;1.13;;
6117;SDS011;3089;48.202;11.510;2022-09-04T05:12:05;3.97;;;1.30;;
6117;SDS011;3089;48.202;11.510;2022-09-04T05:14:45;3.53;;;1.37;;
6117;SDS011;3089;48.202;11.510;2022-09-04T05:17:24;2.97;;;1.50;;
6117;SDS011;3089;48.202;11.510;2022-09-04T05:20:17;3.03;;;1.33;;
6117;SDS011;3089;48.202;11.510;2022-09-04T05:22:53;2.63;;;1.10;;
6117;SDS011;3089;48.202;11.510;2022-09-04T05:25:31;4.60;;;1.30;;
6117;SDS011;3089;48.202;11.510;2022-09-04T05:28:06;3.20;;;1.40;;
6117;SDS011;3089;48.202;11.510;2022-09-04T05:30:46;2.67;;;1.10;;
6117;SDS011;3089;48.202;11.510;2022-09-04T05:33:24;3.50;;;1.37;;
6117;SDS011;3089;48.202;11.510;2022-09-04T05:36:03;5.47;;;1.60;;
6117;SDS011;3089;48.202;11.510;2022-09-04T05:38:37;4.57;;;1.37;;
6117;SDS011;3089;48.202;11.510;2022-09-04T05:41:16;3.30;;;1.23;;
6117;SDS011;3089;48.202;11.510;2022-09-04T05:44:00;3.13;;;1.30;;
6117;SDS011;3089;48.202;11.510;2022-09-04T05:46:49;2.60;;;1.10;;
6117;SDS011;3089;48.202;11.510;2022-09-04T05:49:32;3.33;;;1.50;;
6117;SDS011;3089;48.202;11.510;2022-09-04T05:52:21;3.10;;;1.60;;
6117;SDS011;3089;48.202;11.510;2022-09-04T05:55:16;7.67;;;1.97;;
6117;SDS011;3089;48.202;11.510;2022-09-04T05:58:02;2.77;;;1.10;;
6117;SDS011;3089;48.202;11.510;2022-09-04T06:00:43;5.07;;;1.73;;
6117;SDS011;3089;48.202;11.510;2022-09-04T06:03:26;3.40;;;1.53;;
6117;SDS011;3089;48.202;11.510;2022-09-04T06:06:13;2.83;;;1.30;;
6117;SDS011;3089;48.202;11.510;2022-09-04T06:08:54;3.43;;;1.30;;
6117;SDS011;3089;48.202;11.510;2022-09-04T06:14:58;4.30;;;1.43;;
6117;SDS011;3089;48.202;11.510;2022-09-04T06:17:34;3.00;;;1.40;;
6117;SDS011;3089;48.202;11.510;2022-09-04T06:20:20;11.60;;;1.33;;
6117;SDS011;3089;48.202;11.510;2022-09-04T06:23:01;2.33;;;1.07;;
6117;SDS011;3089;48.202;11.510;2022-09-04T06:26:01;2.50;;;1.07;;
6117;SDS011;3089;48.202;11.510;2022-09-04T06:28:55;3.30;;;1.17;;
6117;SDS011;3089;48.202;11.510;2022-09-04T06:31:55;4.03;;;1.07;;
6117;SDS011;3089;48.202;11.510;2022-09-04T06:34:43;3.27;;;1.10;;
6117;SDS011;3089;48.202;11.510;2022-09-04T06:37:30;2.80;;;1.10;;
6117;SDS011;3089;48.202;11.510;2022-09-04T06:40:09;2.60;;;1.10;;
6117;SDS011;3089;48.202;11.510;2022-09-04T06:42:53;2.83;;;1.27;;
6117;SDS011;3089;48.202;11.510;2022-09-04T06:45:33;3.90;;;1.80;;
6117;SDS011;3089;48.202;11.510;2022-09-04T06:48:14;2.60;;;1.17;;
6117;SDS011;3089;48.202;11.510;2022-09-04T06:50:52;2.90;;;1.27;;
6117;SDS011;3089;48.202;11.510;2022-09-04T06:53:36;2.43;;;1.10;;
6117;SDS011;3089;48.202;11.510;2022-09-04T06:56:14;2.60;;;1.10;;
6117;SDS011;3089;48.202;11.510;2022-09-04T06:59:06;3.23;;;1.57;;
6117;SDS011;3089;48.202;11.510;2022-09-04T07:01:47;2.40;;;0.80;;
6117;SDS011;3089;48.202;11.510;2022-09-04T07:04:33;2.70;;;1.20;;
6117;SDS011;3089;48.202;11.510;2022-09-04T07:07:13;2.40;;;1.00;;
6117;SDS011;3089;48.202;11.510;2022-09-04T07:09:47;3.67;;;1.33;;
6117;SDS011;3089;48.202;11.510;2022-09-04T07:12:28;3.53;;;1.30;;
6117;SDS011;3089;48.202;11.510;2022-09-04T07:15:27;2.50;;;1.00;;
6117;SDS011;3089;48.202;11.510;2022-09-04T07:18:09;4.83;;;1.30;;
6117;SDS011;3089;48.202;11.510;2022-09-04T07:20:54;3.10;;;1.20;;
6117;SDS011;3089;48.202;11.510;2022-09-04T07:23:33;2.50;;;1.07;;
6117;SDS011;3089;48.202;11.510;2022-09-04T07:26:13;2.60;;;1.20;;
6117;SDS011;3089;48.202;11.510;2022-09-04T07:28:59;3.27;;;1.27;;
6117;SDS011;3089;48.202;11.510;2022-09-04T07:31:38;2.97;;;1.40;;
6117;SDS011;3089;48.202;11.510;2022-09-04T07:34:12;4.00;;;1.60;;
6117;SDS011;3089;48.202;11.510;2022-09-04T07:36:47;3.30;;;1.20;;
6117;SDS011;3089;48.202;11.510;2022-09-04T07:39:23;3.63;;;1.50;;
6117;SDS011;3089;48.202;11.510;2022-09-04T07:41:58;3.43;;;1.40;;
6117;SDS011;3089;48.202;11.510;2022-09-04T07:44:33;2.80;;;1.20;;
6117;SDS011;3089;48.202;11.510;2022-09-04T07:47:07;3.43;;;1.50;;
6117;SDS011;3089;48.202;11.510;2022-09-04T07:49:42;2.87;;;1.30;;
6117;SDS011;3089;48.202;11.510;2022-09-04T07:52:21;4.40;;;1.43;;
6117;SDS011;3089;48.202;11.510;2022-09-04T07:55:08;4.67;;;1.90;;
6117;SDS011;3089;48.202;11.510;2022-09-04T07:57:51;3.77;;;1.47;;
6117;SDS011;3089;48.202;11.510;2022-09-04T08:00:30;3.20;;;1.47;;
6117;SDS011;3089;48.202;11.510;2022-09-04T08:03:15;3.23;;;1.67;;
6117;SDS011;3089;48.202;11.510;2022-09-04T08:05:53;3.10;;;1.40;;
6117;SDS011;3089;48.202;11.510;2022-09-04T08:11:38;2.93;;;1.43;;
6117;SDS011;3089;48.202;11.510;2022-09-04T08:14:19;2.87;;;1.33;;
6117;SDS011;3089;48.202;11.510;2022-09-04T08:17:02;3.10;;;1.57;;
6117;SDS011;3089;48.202;11.510;2022-09-04T08:19:52;3.30;;;1.60;;
6117;SDS011;3089;48.202;11.510;2022-09-04T08:22:31;3.13;;;1.50;;
6117;SDS011;3089;48.202;11.510;2022-09-04T08:25:11;3.20;;;1.50;;
6117;SDS011;3089;48.202;11.510;2022-09-04T08:27:50;4.37;;;1.53;;
6117;SDS011;3089;48.202;11.510;2022-09-04T08:30:27;4.67;;;1.70;;
6117;SDS011;3089;48.202;11.510;2022-09-04T08:33:11;3.40;;;1.80;;
6117;SDS011;3089;48.202;11.510;2022-09-04T08:35:57;3.10;;;1.50;;
6117;SDS011;3089;48.202;11.510;2022-09-04T08:38:34;4.00;;;1.90;;
6117;SDS011;3089;48.202;11.510;2022-09-04T08:44:24;3.07;;;1.73;;
6117;SDS011;3089;48.202;11.510;2022-09-04T08:47:25;3.50;;;1.60;;
6117;SDS011;3089;48.202;11.510;2022-09-04T08:56:48;4.03;;;1.77;;
6117;SDS011;3089;48.202;11.510;2022-09-04T08:59:48;3.07;;;1.57;;
6117;SDS011;3089;48.202;11.510;2022-09-04T09:02:45;4.47;;;1.53;;
6117;SDS011;3089;48.202;11.510;2022-09-04T09:05:44;3.00;;;1.30;;
6117;SDS011;3089;48.202;11.510;2022-09-04T09:12:18;3.60;;;1.73;;
6117;SDS011;3089;48.202;11.510;2022-09-04T09:18:13;3.73;;;1.97;;
6117;SDS011;3089;48.202;11.510;2022-09-04T09:20:52;3.97;;;1.50;;
6117;SDS011;3089;48.202;11.510;2022-09-04T09:23:32;6.13;;;1.60;;
6117;SDS011;3089;48.202;11.510;2022-09-04T09:26:18;3.10;;;1.60;;
6117;SDS011;3089;48.202;11.510;2022-09-04T09:38:18;3.37;;;1.63;;
6117;SDS011;3089;48.202;11.510;2022-09-04T09:41:17;3.57;;;1.70;;
6117;SDS011;3089;48.202;11.510;2022-09-04T09:47:34;3.20;;;1.67;;
6117;SDS011;3089;48.202;11.510;2022-09-04T09:53:31;3.63;;;1.70;;
6117;SDS011;3089;48.202;11.510;2022-09-04T09:59:29;3.50;;;1.90;;
6117;SDS011;3089;48.202;11.510;2022-09-04T10:14:51;4.77;;;1.50;;
6117;SDS011;3089;48.202;11.510;2022-09-04T10:21:11;3.60;;;1.60;;
6117;SDS011;3089;48.202;11.510;2022-09-04T10:23:57;4.50;;;1.20;;
6117;SDS011;3089;48.202;11.510;2022-09-04T10:26:49;2.80;;;1.27;;
6117;SDS011;3089;48.202;11.510;2022-09-04T10:29:46;3.07;;;1.23;;
6117;SDS011;3089;48.202;11.510;2022-09-04T10:32:43;2.53;;;1.00;;
6117;SDS011;3089;48.202;11.510;2022-09-04T10:35:24;3.77;;;1.43;;
6117;SDS011;3089;48.202;11.510;2022-09-04T10:38:02;2.93;;;1.30;;
6117;SDS011;3089;48.202;11.510;2022-09-04T10:41:06;9.10;;;1.37;;
6117;SDS011;3089;48.202;11.510;2022-09-04T10:44:00;5.10;;;1.27;;
6117;SDS011;3089;48.202;11.510;2022-09-04T10:46:50;4.10;;;1.00;;
6117;SDS011;3089;48.202;11.510;2022-09-04T10:49:36;4.40;;;1.50;;
6117;SDS011;3089;48.202;11.510;2022-09-04T10:52:39;4.83;;;1.17;;
6117;SDS011;3089;48.202;11.510;2022-09-04T10:55:32;2.67;;;1.13;;
6117;SDS011;3089;48.202;11.510;2022-09-04T11:07:49;3.27;;;1.20;;
6117;SDS011;3089;48.202;11.510;2022-09-04T11:13:47;3.27;;;1.53;;
6117;SDS011;3089;48.202;11.510;2022-09-04T11:16:37;2.70;;;1.10;;
6117;SDS011;3089;48.202;11.510;2022-09-04T11:19:32;2.93;;;1.07;;
6117;SDS011;3089;48.202;11.510;2022-09-04T11:28:38;3.17;;;1.30;;
6117;SDS011;3089;48.202;11.510;2022-09-04T11:34:37;2.70;;;1.10;;
6117;SDS011;3089;48.202;11.510;2022-09-04T11:40:41;3.60;;;1.30;;
6117;SDS011;3089;48.202;11.510;2022-09-04T11:43:43;2.90;;;1.00;;
6117;SDS011;3089;48.202;11.510;2022-09-04T11:46:40;2.67;;;0.93;;
6117;SDS011;3089;48.202;11.510;2022-09-04T11:49:31;3.27;;;1.20;;
6117;SDS011;3089;48.202;11.510;2022-09-04T11:52:14;4.17;;;1.10;;
6117;SDS011;3089;48.202;11.510;2022-09-04T11:57:53;2.80;;;1.10;;
6117;SDS011;3089;48.202;11.510;2022-09-04T12:00:46;2.30;;;0.90;;
6117;SDS011;3089;48.202;11.510;2022-09-04T12:03:31;2.77;;;1.00;;
6117;SDS011;3089;48.202;11.510;2022-09-04T12:06:26;2.50;;;0.83;;
6117;SDS011;3089;48.202;11.510;2022-09-04T12:09:09;3.60;;;0.97;;
6117;SDS011;3089;48.202;11.510;2022-09-04T12:11:58;3.40;;;1.00;;
6117;SDS011;3089;48.202;11.510;2022-09-04T12:14:46;4.93;;;1.30;;
6117;SDS011;3089;48.202;11.510;2022-09-04T12:20:48;3.37;;;1.30;;
6117;SDS011;3089;48.202;11.510;2022-09-04T12:23:45;3.37;;;1.20;;
6117;SDS011;3089;48.202;11.510;2022-09-04T12:26:44;3.43;;;1.03;;
6117;SDS011;3089;48.202;11.510;2022-09-04T12:35:47;4.27;;;1.10;;
6117;SDS011;3089;48.202;11.510;2022-09-04T12:38:46;6.83;;;1.00;;
6117;SDS011;3089;48.202;11.510;2022-09-04T12:41:29;5.50;;;1.17;;
6117;SDS011;3089;48.202;11.510;2022-09-04T12:44:04;4.20;;;1.07;;
6117;SDS011;3089;48.202;11.510;2022-09-04T12:46:43;4.00;;;1.17;;
6117;SDS011;3089;48.202;11.510;2022-09-04T12:49:28;6.00;;;1.30;;
6117;SDS011;3089;48.202;11.510;2022-09-04T12:52:21;2.33;;;0.90;;
6117;SDS011;3089;48.202;11.510;2022-09-04T12:54:58;3.40;;;1.20;;
6117;SDS011;3089;48.202;11.510;2022-09-04T12:57:38;3.30;;;1.23;;
6117;SDS011;3089;48.202;11.510;2022-09-04T13:00:14;2.93;;;1.20;;
6117;SDS011;3089;48.202;11.510;2022-09-04T13:02:45;2.53;;;1.03;;
6117;SDS011;3089;48.202;11.510;2022-09-04T13:08:23;2.50;;;0.90;;
6117;SDS011;3089;48.202;11.510;2022-09-04T13:10:59;3.47;;;0.93;;
6117;SDS011;3089;48.202;11.510;2022-09-04T13:13:42;3.00;;;0.97;;
6117;SDS011;3089;48.202;11.510;2022-09-04T13:16:19;3.00;;;1.20;;
6117;SDS011;3089;48.202;11.510;2022-09-04T13:18:55;3.23;;;1.13;;
6117;SDS011;3089;48.202;11.510;2022-09-04T13:21:37;3.10;;;1.40;;
6117;SDS011;3089;48.202;11.510;2022-09-04T13:24:24;4.30;;;0.90;;
6117;SDS011;3089;48.202;11.510;2022-09-04T13:27:11;2.77;;;1.07;;
6117;SDS011;3089;48.202;11.510;2022-09-04T13:30:03;2.47;;;0.93;;
6117;SDS011;3089;48.202;11.510;2022-09-04T13:32:43;2.50;;;1.00;;
6117;SDS011;3089;48.202;11.510;2022-09-04T13:35:22;4.90;;;1.30;;
6117;SDS011;3089;48.202;11.510;2022-09-04T13:38:22;2.53;;;1.10;;
6117;SDS011;3089;48.202;11.510;2022-09-04T13:41:07;2.80;;;0.90;;
6117;SDS011;3089;48.202;11.510;2022-09-04T13:44:03;3.13;;;1.20;;
6117;SDS011;3089;48.202;11.510;2022-09-04T13:46:45;2.60;;;1.03;;
6117;SDS011;3089;48.202;11.510;2022-09-04T13:49:24;3.23;;;1.07;;
6117;SDS011;3089;48.202;11.510;2022-09-04T13:51:58;3.70;;;1.17;;
6117;SDS011;3089;48.202;11.510;2022-09-04T13:54:32;4.77;;;1.20;;
6117;SDS011;3089;48.202;11.510;2022-09-04T13:57:08;3.10;;;1.20;;
6117;SDS011;3089;48.202;11.510;2022-09-04T13:59:41;3.23;;;1.13;;
6117;SDS011;3089;48.202;11.510;2022-09-04T14:02:16;3.50;;;1.10;;
6117;SDS011;3089;48.202;11.510;2022-09-04T14:04:50;2.70;;;0.97;;
6117;SDS011;3089;48.202;11.510;2022-09-04T14:07:22;3.10;;;1.20;;
6117;SDS011;3089;48.202;11.510;2022-09-04T14:09:55;4.07;;;1.00;;
6117;SDS011;3089;48.202;11.510;2022-09-04T14:12:30;3.50;;;1.23;;
6117;SDS011;3089;48.202;11.510;2022-09-04T14:15:42;2.87;;;1.17;;
6117;SDS011;3089;48.202;11.510;2022-09-04T14:18:28;2.57;;;0.97;;
6117;SDS011;3089;48.202;11.510;2022-09-04T14:21:12;3.93;;;1.03;;
6117;SDS011;3089;48.202;11.510;2022-09-04T14:23:47;3.30;;;1.43;;
6117;SDS011;3089;48.202;11.510;2022-09-04T14:26:22;3.27;;;1.27;;
6117;SDS011;3089;48.202;11.510;2022-09-04T14:29:02;6.30;;;4.00;;
6117;SDS011;3089;48.202;11.510;2022-09-04T14:31:43;9.40;;;5.63;;
6117;SDS011;3089;48.202;11.510;2022-09-04T14:34:22;11.40;;;6.63;;
6117;SDS011;3089;48.202;11.510;2022-09-04T14:37:05;5.30;;;2.13;;
6117;SDS011;3089;48.202;11.510;2022-09-04T14:39:46;3.17;;;1.37;;
6117;SDS011;3089;48.202;11.510;2022-09-04T14:42:24;12.37;;;5.23;;
6117;SDS011;3089;48.202;11.510;2022-09-04T14:45:14;4.87;;;2.07;;
6117;SDS011;3089;48.202;11.510;2022-09-04T14:47:56;3.10;;;1.13;;
6117;SDS011;3089;48.202;11.510;2022-09-04T14:50:29;3.80;;;1.60;;
6117;SDS011;3089;48.202;11.510;2022-09-04T14:53:09;4.00;;;1.33;;
6117;SDS011;3089;48.202;11.510;2022-09-04T14:56:00;2.93;;;1.10;;
6117;SDS011;3089;48.202;11.510;2022-09-04T14:58:42;4.60;;;1.00;;
6117;SDS011;3089;48.202;11.510;2022-09-04T15:01:18;3.00;;;1.00;;
6117;SDS011;3089;48.202;11.510;2022-09-04T15:03:48;3.20;;;1.27;;
6117;SDS011;3089;48.202;11.510;2022-09-04T15:06:22;2.60;;;1.03;;
6117;SDS011;3089;48.202;11.510;2022-09-04T15:11:44;2.90;;;1.10;;
6117;SDS011;3089;48.202;11.510;2022-09-04T15:14:15;3.20;;;0.90;;
6117;SDS011;3089;48.202;11.510;2022-09-04T15:16:55;3.80;;;1.20;;
6117;SDS011;3089;48.202;11.510;2022-09-04T15:19:40;3.53;;;1.10;;
6117;SDS011;3089;48.202;11.510;2022-09-04T15:22:14;2.80;;;1.00;;
6117;SDS011;3089;48.202;11.510;2022-09-04T15:24:48;2.57;;;1.10;;
6117;SDS011;3089;48.202;11.510;2022-09-04T15:27:21;3.07;;;1.27;;
6117;SDS011;3089;48.202;11.510;2022-09-04T15:30:00;3.30;;;1.10;;
6117;SDS011;3089;48.202;11.510;2022-09-04T15:32:34;4.10;;;1.10;;
6117;SDS011;3089;48.202;11.510;2022-09-04T15:35:19;4.60;;;1.40;;
6117;SDS011;3089;48.202;11.510;2022-09-04T15:37:49;6.43;;;2.13;;
6117;SDS011;3089;48.202;11.510;2022-09-04T15:40:30;2.90;;;1.20;;
6117;SDS011;3089;48.202;11.510;2022-09-04T15:43:06;3.23;;;0.90;;
6117;SDS011;3089;48.202;11.510;2022-09-04T15:45:40;2.30;;;0.77;;
6117;SDS011;3089;48.202;11.510;2022-09-04T15:48:28;3.07;;;1.27;;
6117;SDS011;3089;48.202;11.510;2022-09-04T15:51:12;6.27;;;3.10;;
6117;SDS011;3089;48.202;11.510;2022-09-04T15:53:47;9.50;;;1.50;;
6117;SDS011;3089;48.202;11.510;2022-09-04T15:56:28;5.40;;;1.87;;
6117;SDS011;3089;48.202;11.510;2022-09-04T15:59:04;5.33;;;2.20;;
6117;SDS011;3089;48.202;11.510;2022-09-04T16:01:40;4.23;;;1.20;;
6117;SDS011;3089;48.202;11.510;2022-09-04T16:04:17;2.80;;;1.10;;
6117;SDS011;3089;48.202;11.510;2022-09-04T16:06:52;3.93;;;1.20;;
6117;SDS011;3089;48.202;11.510;2022-09-04T16:09:25;4.50;;;1.47;;
6117;SDS011;3089;48.202;11.510;2022-09-04T16:12:00;3.63;;;1.10;;
6117;SDS011;3089;48.202;11.510;2022-09-04T16:14:37;4.30;;;1.67;;
6117;SDS011;3089;48.202;11.510;2022-09-04T16:17:10;2.80;;;1.00;;
6117;SDS011;3089;48.202;11.510;2022-09-04T16:19:47;2.87;;;1.00;;
6117;SDS011;3089;48.202;11.510;2022-09-04T16:22:28;2.43;;;0.90;;
6117;SDS011;3089;48.202;11.510;2022-09-04T16:25:05;3.20;;;1.10;;
6117;SDS011;3089;48.202;11.510;2022-09-04T16:27:37;3.80;;;1.03;;
6117;SDS011;3089;48.202;11.510;2022-09-04T16:30:22;5.17;;;1.20;;
6117;SDS011;3089;48.202;11.510;2022-09-04T16:32:55;3.10;;;0.90;;
6117;SDS011;3089;48.202;11.510;2022-09-04T16:35:25;2.53;;;1.07;;
6117;SDS011;3089;48.202;11.510;2022-09-04T16:38:00;2.77;;;0.90;;
6117;SDS011;3089;48.202;11.510;2022-09-04T16:40:34;5.23;;;1.00;;
6117;SDS011;3089;48.202;11.510;2022-09-04T16:43:08;2.80;;;1.10;;
6117;SDS011;3089;48.202;11.510;2022-09-04T16:45:45;3.50;;;1.00;;
6117;SDS011;3089;48.202;11.510;2022-09-04T16:48:19;2.93;;;0.97;;
6117;SDS011;3089;48.202;11.510;2022-09-04T16:51:03;2.60;;;0.90;;
6117;SDS011;3089;48.202;11.510;2022-09-04T16:53:59;8.70;;;2.50;;
6117;SDS011;3089;48.202;11.510;2022-09-04T16:56:33;13.13;;;5.73;;
6117;SDS011;3089;48.202;11.510;2022-09-04T16:59:14;5.33;;;2.20;;
6117;SDS011;3089;48.202;11.510;2022-09-04T17:01:49;6.23;;;2.40;;
6117;SDS011;3089;48.202;11.510;2022-09-04T17:04:25;5.40;;;3.00;;
6117;SDS011;3089;48.202;11.510;2022-09-04T17:07:10;15.20;;;6.23;;
6117;SDS011;3089;48.202;11.510;2022-09-04T17:09:46;9.00;;;3.40;;
6117;SDS011;3089;48.202;11.510;2022-09-04T17:12:27;4.07;;;1.47;;
6117;SDS011;3089;48.202;11.510;2022-09-04T17:15:05;6.60;;;2.73;;
6117;SDS011;3089;48.202;11.510;2022-09-04T17:17:38;7.33;;;3.33;;
6117;SDS011;3089;48.202;11.510;2022-09-04T17:20:09;6.43;;;2.53;;
6117;SDS011;3089;48.202;11.510;2022-09-04T17:22:43;10.67;;;4.13;;
6117;SDS011;3089;48.202;11.510;2022-09-04T17:25:43;11.70;;;4.57;;
6117;SDS011;3089;48.202;11.510;2022-09-04T17:28:43;12.77;;;6.10;;
6117;SDS011;3089;48.202;11.510;2022-09-04T17:31:40;18.67;;;7.37;;
6117;SDS011;3089;48.202;11.510;2022-09-04T17:34:14;13.37;;;6.47;;
6117;SDS011;3089;48.202;11.510;2022-09-04T17:37:08;13.17;;;7.47;;
6117;SDS011;3089;48.202;11.510;2022-09-04T17:40:03;13.87;;;6.90;;
6117;SDS011;3089;48.202;11.510;2022-09-04T17:43:03;11.93;;;6.33;;
6117;SDS011;3089;48.202;11.510;2022-09-04T17:45:52;10.40;;;5.10;;
6117;SDS011;3089;48.202;11.510;2022-09-04T17:48:28;15.13;;;5.77;;
6117;SDS011;3089;48.202;11.510;2022-09-04T17:50:58;9.63;;;3.90;;
6117;SDS011;3089;48.202;11.510;2022-09-04T17:53:29;11.23;;;5.17;;
6117;SDS011;3089;48.202;11.510;2022-09-04T17:56:03;8.83;;;3.80;;
6117;SDS011;3089;48.202;11.510;2022-09-04T17:58:38;8.97;;;3.77;;
6117;SDS011;3089;48.202;11.510;2022-09-04T18:01:17;9.43;;;3.20;;
6117;SDS011;3089;48.202;11.510;2022-09-04T18:04:00;7.53;;;3.00;;
6117;SDS011;3089;48.202;11.510;2022-09-04T18:06:49;6.80;;;3.57;;
6117;SDS011;3089;48.202;11.510;2022-09-04T18:09:22;7.67;;;3.97;;
6117;SDS011;3089;48.202;11.510;2022-09-04T18:11:59;8.37;;;4.13;;
6117;SDS011;3089;48.202;11.510;2022-09-04T18:14:37;6.80;;;3.47;;
6117;SDS011;3089;48.202;11.510;2022-09-04T18:17:14;12.23;;;4.20;;
6117;SDS011;3089;48.202;11.510;2022-09-04T18:19:47;8.47;;;3.40;;
6117;SDS011;3089;48.202;11.510;2022-09-04T18:22:20;7.40;;;2.70;;
6117;SDS011;3089;48.202;11.510;2022-09-04T18:25:00;6.50;;;3.10;;
6117;SDS011;3089;48.202;11.510;2022-09-04T18:27:47;7.80;;;3.40;;